sensor_id;sensor_type;location;lat;lon;timestamp;P1;durP1;ratioP1;P2;durP2;ratioP2
4831;SDS011;2430;51.322;7.864;2022-10-16T00:01:54;7.67;;;4.90;;
4831;SDS011;2430;51.322;7.864;2022-10-16T00:04:21;8.50;;;4.43;;
4831;SDS011;2430;51.322;7.864;2022-10-16T00:06:47;4.50;;;4.10;;
4831;SDS011;2430;51.322;7.864;2022-10-16T00:09:14;4.43;;;3.97;;
4831;SDS011;2430;51.322;7.864;2022-10-16T00:11:41;5.97;;;4.00;;
4831;SDS011;2430;51.322;7.864;2022-10-16T00:14:08;5.97;;;4.20;;
4831;SDS011;2430;51.322;7.864;2022-10-16T00:16:37;7.07;;;5.20;;
4831;SDS011;2430;51.322;7.864;2022-10-16T00:19:03;8.50;;;4.50;;
4831;SDS011;2430;51.322;7.864;2022-10-16T00:21:30;5.17;;;3.37;;
4831;SDS011;2430;51.322;7.864;2022-10-16T00:23:58;6.63;;;3.63;;
4831;SDS011;2430;51.322;7.864;2022-10-16T00:26:25;3.93;;;3.07;;
4831;SDS011;2430;51.322;7.864;2022-10-16T00:28:52;4.73;;;3.87;;
4831;SDS011;2430;51.322;7.864;2022-10-16T00:31:19;5.33;;;3.60;;
4831;SDS011;2430;51.322;7.864;2022-10-16T00:33:48;3.53;;;2.93;;
4831;SDS011;2430;51.322;7.864;2022-10-16T00:36:15;5.47;;;3.77;;
4831;SDS011;2430;51.322;7.864;2022-10-16T00:38:42;7.40;;;3.90;;
4831;SDS011;2430;51.322;7.864;2022-10-16T00:41:09;5.07;;;3.03;;
4831;SDS011;2430;51.322;7.864;2022-10-16T00:43:38;6.73;;;4.07;;
4831;SDS011;2430;51.322;7.864;2022-10-16T00:46:07;3.43;;;3.13;;
4831;SDS011;2430;51.322;7.864;2022-10-16T00:48:35;5.53;;;3.20;;
4831;SDS011;2430;51.322;7.864;2022-10-16T00:51:03;4.97;;;3.53;;
4831;SDS011;2430;51.322;7.864;2022-10-16T00:53:30;3.83;;;3.30;;
4831;SDS011;2430;51.322;7.864;2022-10-16T00:55:57;12.90;;;3.57;;
4831;SDS011;2430;51.322;7.864;2022-10-16T00:58:23;3.07;;;2.80;;
4831;SDS011;2430;51.322;7.864;2022-10-16T01:00:50;5.40;;;4.00;;
4831;SDS011;2430;51.322;7.864;2022-10-16T01:03:24;6.20;;;3.60;;
4831;SDS011;2430;51.322;7.864;2022-10-16T01:05:51;8.50;;;3.33;;
4831;SDS011;2430;51.322;7.864;2022-10-16T01:08:29;4.30;;;2.70;;
4831;SDS011;2430;51.322;7.864;2022-10-16T01:10:57;3.30;;;2.90;;
4831;SDS011;2430;51.322;7.864;2022-10-16T01:13:27;10.30;;;2.83;;
4831;SDS011;2430;51.322;7.864;2022-10-16T01:15:55;3.17;;;2.70;;
4831;SDS011;2430;51.322;7.864;2022-10-16T01:18:23;4.13;;;3.23;;
4831;SDS011;2430;51.322;7.864;2022-10-16T01:20:55;5.00;;;3.37;;
4831;SDS011;2430;51.322;7.864;2022-10-16T01:23:27;3.67;;;3.00;;
4831;SDS011;2430;51.322;7.864;2022-10-16T01:26:06;4.00;;;3.00;;
4831;SDS011;2430;51.322;7.864;2022-10-16T01:28:38;5.20;;;3.00;;
4831;SDS011;2430;51.322;7.864;2022-10-16T01:31:05;10.10;;;2.87;;
4831;SDS011;2430;51.322;7.864;2022-10-16T01:33:34;5.63;;;3.73;;
4831;SDS011;2430;51.322;7.864;2022-10-16T01:36:03;4.17;;;3.10;;
4831;SDS011;2430;51.322;7.864;2022-10-16T01:38:33;7.20;;;2.40;;
4831;SDS011;2430;51.322;7.864;2022-10-16T01:41:02;4.17;;;2.50;;
4831;SDS011;2430;51.322;7.864;2022-10-16T01:43:33;3.80;;;3.20;;
4831;SDS011;2430;51.322;7.864;2022-10-16T01:46:03;4.00;;;2.80;;
4831;SDS011;2430;51.322;7.864;2022-10-16T01:48:30;2.87;;;2.57;;
4831;SDS011;2430;51.322;7.864;2022-10-16T01:50:57;6.63;;;3.10;;
4831;SDS011;2430;51.322;7.864;2022-10-16T01:53:25;3.00;;;2.60;;
4831;SDS011;2430;51.322;7.864;2022-10-16T01:55:53;3.83;;;2.53;;
4831;SDS011;2430;51.322;7.864;2022-10-16T01:58:20;2.13;;;1.90;;
4831;SDS011;2430;51.322;7.864;2022-10-16T02:00:48;3.00;;;2.80;;
4831;SDS011;2430;51.322;7.864;2022-10-16T02:03:16;3.53;;;2.00;;
4831;SDS011;2430;51.322;7.864;2022-10-16T02:05:45;3.33;;;2.40;;
4831;SDS011;2430;51.322;7.864;2022-10-16T02:08:12;4.60;;;2.63;;
4831;SDS011;2430;51.322;7.864;2022-10-16T02:10:39;3.13;;;2.67;;
4831;SDS011;2430;51.322;7.864;2022-10-16T02:13:06;1.80;;;1.70;;
4831;SDS011;2430;51.322;7.864;2022-10-16T02:15:34;3.80;;;2.27;;
4831;SDS011;2430;51.322;7.864;2022-10-16T02:18:01;8.10;;;2.57;;
4831;SDS011;2430;51.322;7.864;2022-10-16T02:20:29;6.13;;;2.30;;
4831;SDS011;2430;51.322;7.864;2022-10-16T02:22:58;1.90;;;1.80;;
4831;SDS011;2430;51.322;7.864;2022-10-16T02:25:28;4.03;;;2.50;;
4831;SDS011;2430;51.322;7.864;2022-10-16T02:27:57;3.83;;;2.50;;
4831;SDS011;2430;51.322;7.864;2022-10-16T02:30:25;1.70;;;1.60;;
4831;SDS011;2430;51.322;7.864;2022-10-16T02:32:53;1.83;;;1.73;;
4831;SDS011;2430;51.322;7.864;2022-10-16T02:35:20;1.77;;;1.67;;
4831;SDS011;2430;51.322;7.864;2022-10-16T02:37:48;2.40;;;2.20;;
4831;SDS011;2430;51.322;7.864;2022-10-16T02:40:16;3.83;;;2.00;;
4831;SDS011;2430;51.322;7.864;2022-10-16T02:42:43;1.80;;;1.47;;
4831;SDS011;2430;51.322;7.864;2022-10-16T02:45:10;2.03;;;1.83;;
4831;SDS011;2430;51.322;7.864;2022-10-16T02:47:37;2.10;;;1.80;;
4831;SDS011;2430;51.322;7.864;2022-10-16T02:50:04;2.00;;;1.90;;
4831;SDS011;2430;51.322;7.864;2022-10-16T02:52:30;7.53;;;1.90;;
4831;SDS011;2430;51.322;7.864;2022-10-16T02:54:58;6.43;;;2.23;;
4831;SDS011;2430;51.322;7.864;2022-10-16T02:57:25;1.57;;;1.47;;
4831;SDS011;2430;51.322;7.864;2022-10-16T02:59:51;1.83;;;1.73;;
4831;SDS011;2430;51.322;7.864;2022-10-16T03:02:18;1.47;;;1.30;;
4831;SDS011;2430;51.322;7.864;2022-10-16T03:04:44;2.13;;;1.93;;
4831;SDS011;2430;51.322;7.864;2022-10-16T03:07:11;1.60;;;1.50;;
4831;SDS011;2430;51.322;7.864;2022-10-16T03:09:37;1.53;;;1.43;;
4831;SDS011;2430;51.322;7.864;2022-10-16T03:12:05;1.43;;;1.33;;
4831;SDS011;2430;51.322;7.864;2022-10-16T03:14:32;1.70;;;1.60;;
4831;SDS011;2430;51.322;7.864;2022-10-16T03:16:58;1.90;;;1.70;;
4831;SDS011;2430;51.322;7.864;2022-10-16T03:19:25;1.93;;;1.80;;
4831;SDS011;2430;51.322;7.864;2022-10-16T03:21:51;5.20;;;2.27;;
4831;SDS011;2430;51.322;7.864;2022-10-16T03:24:17;20.93;;;1.53;;
4831;SDS011;2430;51.322;7.864;2022-10-16T03:26:44;1.60;;;1.50;;
4831;SDS011;2430;51.322;7.864;2022-10-16T03:29:12;5.07;;;1.80;;
4831;SDS011;2430;51.322;7.864;2022-10-16T03:31:38;3.47;;;2.40;;
4831;SDS011;2430;51.322;7.864;2022-10-16T03:34:05;2.00;;;1.70;;
4831;SDS011;2430;51.322;7.864;2022-10-16T03:36:31;1.70;;;1.60;;
4831;SDS011;2430;51.322;7.864;2022-10-16T03:38:58;1.80;;;1.70;;
4831;SDS011;2430;51.322;7.864;2022-10-16T03:41:24;3.00;;;1.90;;
4831;SDS011;2430;51.322;7.864;2022-10-16T03:43:51;2.20;;;1.93;;
4831;SDS011;2430;51.322;7.864;2022-10-16T03:46:19;1.83;;;1.67;;
4831;SDS011;2430;51.322;7.864;2022-10-16T03:48:45;1.83;;;1.73;;
4831;SDS011;2430;51.322;7.864;2022-10-16T03:51:11;1.83;;;1.73;;
4831;SDS011;2430;51.322;7.864;2022-10-16T03:53:38;2.83;;;1.87;;
4831;SDS011;2430;51.322;7.864;2022-10-16T03:56:05;1.50;;;1.40;;
4831;SDS011;2430;51.322;7.864;2022-10-16T03:58:31;1.30;;;1.20;;
4831;SDS011;2430;51.322;7.864;2022-10-16T04:00:58;2.80;;;1.40;;
4831;SDS011;2430;51.322;7.864;2022-10-16T04:03:26;2.27;;;1.73;;
4831;SDS011;2430;51.322;7.864;2022-10-16T04:05:52;1.50;;;1.40;;
4831;SDS011;2430;51.322;7.864;2022-10-16T04:08:19;1.30;;;1.20;;
4831;SDS011;2430;51.322;7.864;2022-10-16T04:10:45;1.73;;;1.63;;
4831;SDS011;2430;51.322;7.864;2022-10-16T04:13:12;1.70;;;1.60;;
4831;SDS011;2430;51.322;7.864;2022-10-16T04:15:39;1.30;;;1.20;;
4831;SDS011;2430;51.322;7.864;2022-10-16T04:18:05;1.27;;;1.17;;
4831;SDS011;2430;51.322;7.864;2022-10-16T04:20:33;2.30;;;1.57;;
4831;SDS011;2430;51.322;7.864;2022-10-16T04:23:00;1.30;;;1.10;;
4831;SDS011;2430;51.322;7.864;2022-10-16T04:25:26;1.87;;;1.27;;
4831;SDS011;2430;51.322;7.864;2022-10-16T04:27:53;1.60;;;1.50;;
4831;SDS011;2430;51.322;7.864;2022-10-16T04:30:20;1.40;;;1.30;;
4831;SDS011;2430;51.322;7.864;2022-10-16T04:32:47;1.30;;;1.20;;
4831;SDS011;2430;51.322;7.864;2022-10-16T04:35:14;2.93;;;1.57;;
4831;SDS011;2430;51.322;7.864;2022-10-16T04:37:42;2.13;;;1.50;;
4831;SDS011;2430;51.322;7.864;2022-10-16T04:40:09;11.80;;;1.77;;
4831;SDS011;2430;51.322;7.864;2022-10-16T04:42:35;6.10;;;2.33;;
4831;SDS011;2430;51.322;7.864;2022-10-16T04:45:02;1.40;;;1.30;;
4831;SDS011;2430;51.322;7.864;2022-10-16T04:47:29;4.83;;;1.33;;
4831;SDS011;2430;51.322;7.864;2022-10-16T04:49:56;1.23;;;1.13;;
4831;SDS011;2430;51.322;7.864;2022-10-16T04:52:23;1.43;;;1.33;;
4831;SDS011;2430;51.322;7.864;2022-10-16T04:54:52;1.97;;;1.57;;
4831;SDS011;2430;51.322;7.864;2022-10-16T04:57:19;1.73;;;1.63;;
4831;SDS011;2430;51.322;7.864;2022-10-16T04:59:45;1.30;;;1.20;;
4831;SDS011;2430;51.322;7.864;2022-10-16T05:02:12;4.90;;;1.50;;
4831;SDS011;2430;51.322;7.864;2022-10-16T05:04:38;2.33;;;2.13;;
4831;SDS011;2430;51.322;7.864;2022-10-16T05:07:05;1.40;;;1.30;;
4831;SDS011;2430;51.322;7.864;2022-10-16T05:09:31;4.00;;;2.23;;
4831;SDS011;2430;51.322;7.864;2022-10-16T05:11:59;2.73;;;1.70;;
4831;SDS011;2430;51.322;7.864;2022-10-16T05:14:26;2.50;;;1.67;;
4831;SDS011;2430;51.322;7.864;2022-10-16T05:16:52;2.27;;;1.50;;
4831;SDS011;2430;51.322;7.864;2022-10-16T05:19:19;1.53;;;1.43;;
4831;SDS011;2430;51.322;7.864;2022-10-16T05:21:45;1.03;;;1.00;;
4831;SDS011;2430;51.322;7.864;2022-10-16T05:24:11;3.33;;;1.53;;
4831;SDS011;2430;51.322;7.864;2022-10-16T05:26:38;3.50;;;1.33;;
4831;SDS011;2430;51.322;7.864;2022-10-16T05:29:06;0.90;;;0.90;;
4831;SDS011;2430;51.322;7.864;2022-10-16T05:31:32;2.50;;;1.40;;
4831;SDS011;2430;51.322;7.864;2022-10-16T05:33:59;1.20;;;1.10;;
4831;SDS011;2430;51.322;7.864;2022-10-16T05:36:25;1.30;;;1.20;;
4831;SDS011;2430;51.322;7.864;2022-10-16T05:38:52;2.30;;;1.47;;
4831;SDS011;2430;51.322;7.864;2022-10-16T05:41:18;1.00;;;0.97;;
4831;SDS011;2430;51.322;7.864;2022-10-16T05:43:46;1.90;;;1.17;;
4831;SDS011;2430;51.322;7.864;2022-10-16T05:46:14;1.10;;;1.00;;
4831;SDS011;2430;51.322;7.864;2022-10-16T05:48:41;0.90;;;0.90;;
4831;SDS011;2430;51.322;7.864;2022-10-16T05:51:09;11.80;;;1.53;;
4831;SDS011;2430;51.322;7.864;2022-10-16T05:53:36;1.20;;;1.10;;
4831;SDS011;2430;51.322;7.864;2022-10-16T05:56:03;1.23;;;1.13;;
4831;SDS011;2430;51.322;7.864;2022-10-16T05:58:31;1.40;;;1.30;;
4831;SDS011;2430;51.322;7.864;2022-10-16T06:00:58;1.10;;;1.00;;
4831;SDS011;2430;51.322;7.864;2022-10-16T06:03:27;2.00;;;1.20;;
4831;SDS011;2430;51.322;7.864;2022-10-16T06:05:54;1.00;;;1.00;;
4831;SDS011;2430;51.322;7.864;2022-10-16T06:08:21;1.57;;;1.47;;
4831;SDS011;2430;51.322;7.864;2022-10-16T06:10:47;1.20;;;1.10;;
4831;SDS011;2430;51.322;7.864;2022-10-16T06:13:14;7.70;;;2.23;;
4831;SDS011;2430;51.322;7.864;2022-10-16T06:15:41;2.43;;;1.30;;
4831;SDS011;2430;51.322;7.864;2022-10-16T06:18:14;1.47;;;1.37;;
4831;SDS011;2430;51.322;7.864;2022-10-16T06:20:42;1.40;;;1.30;;
4831;SDS011;2430;51.322;7.864;2022-10-16T06:23:08;1.60;;;1.50;;
4831;SDS011;2430;51.322;7.864;2022-10-16T06:25:35;2.20;;;1.67;;
4831;SDS011;2430;51.322;7.864;2022-10-16T06:28:01;1.07;;;1.00;;
4831;SDS011;2430;51.322;7.864;2022-10-16T06:30:28;4.40;;;1.93;;
4831;SDS011;2430;51.322;7.864;2022-10-16T06:32:54;1.30;;;1.20;;
4831;SDS011;2430;51.322;7.864;2022-10-16T06:35:21;1.53;;;1.40;;
4831;SDS011;2430;51.322;7.864;2022-10-16T06:37:49;1.77;;;1.30;;
4831;SDS011;2430;51.322;7.864;2022-10-16T06:40:15;1.53;;;1.43;;
4831;SDS011;2430;51.322;7.864;2022-10-16T06:42:42;1.33;;;1.23;;
4831;SDS011;2430;51.322;7.864;2022-10-16T06:45:08;1.20;;;1.10;;
4831;SDS011;2430;51.322;7.864;2022-10-16T06:47:35;1.30;;;1.20;;
4831;SDS011;2430;51.322;7.864;2022-10-16T06:50:02;1.37;;;1.27;;
4831;SDS011;2430;51.322;7.864;2022-10-16T06:52:28;2.73;;;1.17;;
4831;SDS011;2430;51.322;7.864;2022-10-16T06:54:56;1.40;;;1.30;;
4831;SDS011;2430;51.322;7.864;2022-10-16T06:57:23;1.67;;;1.40;;
4831;SDS011;2430;51.322;7.864;2022-10-16T06:59:49;1.40;;;1.30;;
4831;SDS011;2430;51.322;7.864;2022-10-16T07:02:16;1.03;;;0.93;;
4831;SDS011;2430;51.322;7.864;2022-10-16T07:04:42;1.50;;;1.40;;
4831;SDS011;2430;51.322;7.864;2022-10-16T07:07:09;2.33;;;1.50;;
4831;SDS011;2430;51.322;7.864;2022-10-16T07:09:35;2.37;;;1.30;;
4831;SDS011;2430;51.322;7.864;2022-10-16T07:12:03;1.17;;;1.07;;
4831;SDS011;2430;51.322;7.864;2022-10-16T07:14:30;1.27;;;1.17;;
4831;SDS011;2430;51.322;7.864;2022-10-16T07:16:56;1.40;;;1.30;;
4831;SDS011;2430;51.322;7.864;2022-10-16T07:19:23;1.40;;;1.30;;
4831;SDS011;2430;51.322;7.864;2022-10-16T07:21:50;1.20;;;1.10;;
4831;SDS011;2430;51.322;7.864;2022-10-16T07:24:16;2.20;;;1.43;;
4831;SDS011;2430;51.322;7.864;2022-10-16T07:26:44;1.87;;;1.20;;
4831;SDS011;2430;51.322;7.864;2022-10-16T07:29:13;3.43;;;1.17;;
4831;SDS011;2430;51.322;7.864;2022-10-16T07:31:40;1.43;;;1.20;;
4831;SDS011;2430;51.322;7.864;2022-10-16T07:34:06;3.50;;;1.33;;
4831;SDS011;2430;51.322;7.864;2022-10-16T07:36:33;1.13;;;1.03;;
4831;SDS011;2430;51.322;7.864;2022-10-16T07:39:00;1.87;;;1.10;;
4831;SDS011;2430;51.322;7.864;2022-10-16T07:41:26;3.63;;;1.27;;
4831;SDS011;2430;51.322;7.864;2022-10-16T07:43:54;1.07;;;0.80;;
4831;SDS011;2430;51.322;7.864;2022-10-16T07:46:23;1.17;;;1.07;;
4831;SDS011;2430;51.322;7.864;2022-10-16T07:48:49;1.93;;;1.10;;
4831;SDS011;2430;51.322;7.864;2022-10-16T07:51:16;1.30;;;1.20;;
4831;SDS011;2430;51.322;7.864;2022-10-16T07:53:43;2.00;;;1.00;;
4831;SDS011;2430;51.322;7.864;2022-10-16T07:56:10;1.20;;;0.90;;
4831;SDS011;2430;51.322;7.864;2022-10-16T07:58:37;1.40;;;1.20;;
4831;SDS011;2430;51.322;7.864;2022-10-16T08:01:04;2.20;;;1.50;;
4831;SDS011;2430;51.322;7.864;2022-10-16T08:03:32;2.97;;;1.03;;
4831;SDS011;2430;51.322;7.864;2022-10-16T08:05:59;1.40;;;0.80;;
4831;SDS011;2430;51.322;7.864;2022-10-16T08:08:25;6.10;;;1.10;;
4831;SDS011;2430;51.322;7.864;2022-10-16T08:10:52;0.80;;;0.80;;
4831;SDS011;2430;51.322;7.864;2022-10-16T08:13:19;0.93;;;0.83;;
4831;SDS011;2430;51.322;7.864;2022-10-16T08:15:45;1.47;;;1.00;;
4831;SDS011;2430;51.322;7.864;2022-10-16T08:18:12;1.00;;;0.90;;
4831;SDS011;2430;51.322;7.864;2022-10-16T08:20:41;1.20;;;1.10;;
4831;SDS011;2430;51.322;7.864;2022-10-16T08:23:08;3.90;;;0.90;;
4831;SDS011;2430;51.322;7.864;2022-10-16T08:25:35;2.70;;;1.27;;
4831;SDS011;2430;51.322;7.864;2022-10-16T08:28:02;1.50;;;1.00;;
4831;SDS011;2430;51.322;7.864;2022-10-16T08:30:29;3.17;;;1.10;;
4831;SDS011;2430;51.322;7.864;2022-10-16T08:32:56;1.27;;;1.03;;
4831;SDS011;2430;51.322;7.864;2022-10-16T08:35:23;1.40;;;1.30;;
4831;SDS011;2430;51.322;7.864;2022-10-16T08:37:51;2.20;;;1.20;;
4831;SDS011;2430;51.322;7.864;2022-10-16T08:40:18;1.20;;;1.10;;
4831;SDS011;2430;51.322;7.864;2022-10-16T08:45:42;5.33;;;1.03;;
4831;SDS011;2430;51.322;7.864;2022-10-16T08:48:20;0.90;;;0.77;;
4831;SDS011;2430;51.322;7.864;2022-10-16T08:50:48;1.40;;;1.00;;
4831;SDS011;2430;51.322;7.864;2022-10-16T08:53:18;2.77;;;1.50;;
4831;SDS011;2430;51.322;7.864;2022-10-16T08:55:49;1.73;;;1.10;;
4831;SDS011;2430;51.322;7.864;2022-10-16T08:58:16;0.77;;;0.77;;
4831;SDS011;2430;51.322;7.864;2022-10-16T09:00:45;0.80;;;0.80;;
4831;SDS011;2430;51.322;7.864;2022-10-16T09:03:14;7.50;;;1.53;;
4831;SDS011;2430;51.322;7.864;2022-10-16T09:05:46;4.20;;;0.90;;
4831;SDS011;2430;51.322;7.864;2022-10-16T09:08:17;2.43;;;0.80;;
4831;SDS011;2430;51.322;7.864;2022-10-16T09:10:48;2.40;;;1.30;;
4831;SDS011;2430;51.322;7.864;2022-10-16T09:13:21;1.47;;;1.10;;
4831;SDS011;2430;51.322;7.864;2022-10-16T09:15:52;1.20;;;1.00;;
4831;SDS011;2430;51.322;7.864;2022-10-16T09:18:20;1.00;;;0.80;;
4831;SDS011;2430;51.322;7.864;2022-10-16T09:20:50;4.60;;;0.80;;
4831;SDS011;2430;51.322;7.864;2022-10-16T09:23:19;0.87;;;0.73;;
4831;SDS011;2430;51.322;7.864;2022-10-16T09:25:48;0.87;;;0.80;;
4831;SDS011;2430;51.322;7.864;2022-10-16T09:28:15;0.70;;;0.70;;
4831;SDS011;2430;51.322;7.864;2022-10-16T09:30:43;0.90;;;0.80;;
4831;SDS011;2430;51.322;7.864;2022-10-16T09:33:10;1.07;;;0.90;;
4831;SDS011;2430;51.322;7.864;2022-10-16T09:35:37;0.83;;;0.77;;
4831;SDS011;2430;51.322;7.864;2022-10-16T09:38:04;1.43;;;1.00;;
4831;SDS011;2430;51.322;7.864;2022-10-16T09:40:33;1.00;;;0.80;;
4831;SDS011;2430;51.322;7.864;2022-10-16T09:43:06;1.77;;;0.80;;
4831;SDS011;2430;51.322;7.864;2022-10-16T09:45:35;1.10;;;1.00;;
4831;SDS011;2430;51.322;7.864;2022-10-16T09:48:08;0.80;;;0.80;;
4831;SDS011;2430;51.322;7.864;2022-10-16T09:50:36;1.00;;;0.90;;
4831;SDS011;2430;51.322;7.864;2022-10-16T09:53:04;1.47;;;0.90;;
4831;SDS011;2430;51.322;7.864;2022-10-16T09:55:32;7.80;;;1.00;;
4831;SDS011;2430;51.322;7.864;2022-10-16T09:57:59;8.90;;;1.30;;
4831;SDS011;2430;51.322;7.864;2022-10-16T10:00:25;0.93;;;0.90;;
4831;SDS011;2430;51.322;7.864;2022-10-16T10:02:52;0.90;;;0.83;;
4831;SDS011;2430;51.322;7.864;2022-10-16T10:05:20;1.27;;;0.90;;
4831;SDS011;2430;51.322;7.864;2022-10-16T10:07:52;0.93;;;0.67;;
4831;SDS011;2430;51.322;7.864;2022-10-16T10:10:20;1.00;;;0.80;;
4831;SDS011;2430;51.322;7.864;2022-10-16T10:12:48;1.10;;;0.67;;
4831;SDS011;2430;51.322;7.864;2022-10-16T10:15:15;1.30;;;0.73;;
4831;SDS011;2430;51.322;7.864;2022-10-16T10:17:46;4.20;;;0.90;;
4831;SDS011;2430;51.322;7.864;2022-10-16T10:20:15;0.80;;;0.80;;
4831;SDS011;2430;51.322;7.864;2022-10-16T10:22:43;1.27;;;1.07;;
4831;SDS011;2430;51.322;7.864;2022-10-16T10:25:14;2.47;;;0.90;;
4831;SDS011;2430;51.322;7.864;2022-10-16T10:27:44;0.83;;;0.70;;
4831;SDS011;2430;51.322;7.864;2022-10-16T10:30:17;1.00;;;0.90;;
4831;SDS011;2430;51.322;7.864;2022-10-16T10:32:46;6.07;;;0.70;;
4831;SDS011;2430;51.322;7.864;2022-10-16T10:35:17;0.90;;;0.70;;
4831;SDS011;2430;51.322;7.864;2022-10-16T10:37:50;2.20;;;0.80;;
4831;SDS011;2430;51.322;7.864;2022-10-16T10:40:22;2.30;;;0.80;;
4831;SDS011;2430;51.322;7.864;2022-10-16T10:42:51;0.70;;;0.60;;
4831;SDS011;2430;51.322;7.864;2022-10-16T10:45:25;0.90;;;0.70;;
4831;SDS011;2430;51.322;7.864;2022-10-16T10:48:02;2.20;;;1.00;;
4831;SDS011;2430;51.322;7.864;2022-10-16T10:50:33;1.20;;;0.73;;
4831;SDS011;2430;51.322;7.864;2022-10-16T10:53:04;10.23;;;1.33;;
4831;SDS011;2430;51.322;7.864;2022-10-16T10:55:39;1.50;;;1.00;;
4831;SDS011;2430;51.322;7.864;2022-10-16T10:58:20;0.80;;;0.70;;
4831;SDS011;2430;51.322;7.864;2022-10-16T11:00:53;0.90;;;0.70;;
4831;SDS011;2430;51.322;7.864;2022-10-16T11:03:27;1.80;;;0.80;;
4831;SDS011;2430;51.322;7.864;2022-10-16T11:05:58;0.80;;;0.60;;
4831;SDS011;2430;51.322;7.864;2022-10-16T11:08:26;0.90;;;0.70;;
4831;SDS011;2430;51.322;7.864;2022-10-16T11:10:54;0.80;;;0.60;;
4831;SDS011;2430;51.322;7.864;2022-10-16T11:13:26;0.80;;;0.70;;
4831;SDS011;2430;51.322;7.864;2022-10-16T11:15:57;0.80;;;0.70;;
4831;SDS011;2430;51.322;7.864;2022-10-16T11:18:26;0.87;;;0.73;;
4831;SDS011;2430;51.322;7.864;2022-10-16T11:20:56;1.20;;;0.83;;
4831;SDS011;2430;51.322;7.864;2022-10-16T11:23:25;2.27;;;0.90;;
4831;SDS011;2430;51.322;7.864;2022-10-16T11:25:53;1.50;;;1.10;;
4831;SDS011;2430;51.322;7.864;2022-10-16T11:28:23;0.93;;;0.80;;
4831;SDS011;2430;51.322;7.864;2022-10-16T11:30:54;0.80;;;0.70;;
4831;SDS011;2430;51.322;7.864;2022-10-16T11:33:27;2.70;;;0.80;;
4831;SDS011;2430;51.322;7.864;2022-10-16T11:35:59;0.90;;;0.80;;
4831;SDS011;2430;51.322;7.864;2022-10-16T11:38:27;1.60;;;0.93;;
4831;SDS011;2430;51.322;7.864;2022-10-16T11:40:57;0.80;;;0.70;;
4831;SDS011;2430;51.322;7.864;2022-10-16T11:43:26;3.23;;;1.00;;
4831;SDS011;2430;51.322;7.864;2022-10-16T11:45:55;0.60;;;0.50;;
4831;SDS011;2430;51.322;7.864;2022-10-16T11:48:25;1.03;;;0.70;;
4831;SDS011;2430;51.322;7.864;2022-10-16T11:50:55;0.80;;;0.70;;
4831;SDS011;2430;51.322;7.864;2022-10-16T11:53:24;1.00;;;0.77;;
4831;SDS011;2430;51.322;7.864;2022-10-16T11:55:54;1.00;;;0.80;;
4831;SDS011;2430;51.322;7.864;2022-10-16T11:58:23;0.70;;;0.70;;
4831;SDS011;2430;51.322;7.864;2022-10-16T12:00:54;1.00;;;0.83;;
4831;SDS011;2430;51.322;7.864;2022-10-16T12:03:24;1.10;;;0.80;;
4831;SDS011;2430;51.322;7.864;2022-10-16T12:06:00;0.80;;;0.80;;
4831;SDS011;2430;51.322;7.864;2022-10-16T12:08:30;1.10;;;0.70;;
4831;SDS011;2430;51.322;7.864;2022-10-16T12:11:06;1.87;;;0.80;;
4831;SDS011;2430;51.322;7.864;2022-10-16T12:13:34;0.77;;;0.63;;
4831;SDS011;2430;51.322;7.864;2022-10-16T12:16:04;2.27;;;0.70;;
4831;SDS011;2430;51.322;7.864;2022-10-16T12:18:31;1.27;;;0.93;;
4831;SDS011;2430;51.322;7.864;2022-10-16T12:20:57;0.70;;;0.70;;
4831;SDS011;2430;51.322;7.864;2022-10-16T12:23:31;0.93;;;0.77;;
4831;SDS011;2430;51.322;7.864;2022-10-16T12:25:58;1.67;;;0.70;;
4831;SDS011;2430;51.322;7.864;2022-10-16T12:28:26;0.70;;;0.60;;
4831;SDS011;2430;51.322;7.864;2022-10-16T12:30:53;0.80;;;0.60;;
4831;SDS011;2430;51.322;7.864;2022-10-16T12:33:21;1.37;;;0.93;;
4831;SDS011;2430;51.322;7.864;2022-10-16T12:35:49;1.10;;;0.70;;
4831;SDS011;2430;51.322;7.864;2022-10-16T12:38:17;0.70;;;0.70;;
4831;SDS011;2430;51.322;7.864;2022-10-16T12:40:46;0.80;;;0.70;;
4831;SDS011;2430;51.322;7.864;2022-10-16T12:46:02;1.10;;;1.00;;
4831;SDS011;2430;51.322;7.864;2022-10-16T12:48:28;5.27;;;0.93;;
4831;SDS011;2430;51.322;7.864;2022-10-16T12:50:56;1.00;;;0.70;;
4831;SDS011;2430;51.322;7.864;2022-10-16T12:53:24;0.80;;;0.70;;
4831;SDS011;2430;51.322;7.864;2022-10-16T12:56:00;1.00;;;0.80;;
4831;SDS011;2430;51.322;7.864;2022-10-16T12:58:43;0.70;;;0.60;;
4831;SDS011;2430;51.322;7.864;2022-10-16T13:01:17;0.87;;;0.70;;
4831;SDS011;2430;51.322;7.864;2022-10-16T13:03:50;1.60;;;1.00;;
4831;SDS011;2430;51.322;7.864;2022-10-16T13:08:54;0.80;;;0.60;;
4831;SDS011;2430;51.322;7.864;2022-10-16T13:11:27;4.77;;;1.17;;
4831;SDS011;2430;51.322;7.864;2022-10-16T13:14:04;0.80;;;0.70;;
4831;SDS011;2430;51.322;7.864;2022-10-16T13:16:36;1.10;;;0.80;;
4831;SDS011;2430;51.322;7.864;2022-10-16T13:19:09;0.80;;;0.70;;
4831;SDS011;2430;51.322;7.864;2022-10-16T13:21:43;1.37;;;0.90;;
4831;SDS011;2430;51.322;7.864;2022-10-16T13:24:14;2.13;;;1.00;;
4831;SDS011;2430;51.322;7.864;2022-10-16T13:26:46;1.10;;;0.87;;
4831;SDS011;2430;51.322;7.864;2022-10-16T13:29:15;0.77;;;0.60;;
4831;SDS011;2430;51.322;7.864;2022-10-16T13:31:42;0.90;;;0.70;;
4831;SDS011;2430;51.322;7.864;2022-10-16T13:34:11;1.13;;;0.73;;
4831;SDS011;2430;51.322;7.864;2022-10-16T13:36:42;3.83;;;1.00;;
4831;SDS011;2430;51.322;7.864;2022-10-16T13:39:11;1.87;;;1.10;;
4831;SDS011;2430;51.322;7.864;2022-10-16T13:41:38;3.13;;;0.90;;
4831;SDS011;2430;51.322;7.864;2022-10-16T13:44:07;1.20;;;0.97;;
4831;SDS011;2430;51.322;7.864;2022-10-16T13:46:37;0.80;;;0.80;;
4831;SDS011;2430;51.322;7.864;2022-10-16T13:49:05;3.47;;;0.80;;
4831;SDS011;2430;51.322;7.864;2022-10-16T13:51:32;2.90;;;0.90;;
4831;SDS011;2430;51.322;7.864;2022-10-16T13:53:59;0.80;;;0.70;;
4831;SDS011;2430;51.322;7.864;2022-10-16T13:56:26;0.80;;;0.70;;
4831;SDS011;2430;51.322;7.864;2022-10-16T13:59:00;0.90;;;0.67;;
4831;SDS011;2430;51.322;7.864;2022-10-16T14:01:29;7.50;;;0.90;;
4831;SDS011;2430;51.322;7.864;2022-10-16T14:04:01;0.73;;;0.67;;
4831;SDS011;2430;51.322;7.864;2022-10-16T14:06:29;0.80;;;0.70;;
4831;SDS011;2430;51.322;7.864;2022-10-16T14:08:57;1.20;;;0.77;;
4831;SDS011;2430;51.322;7.864;2022-10-16T14:11:25;0.90;;;0.80;;
4831;SDS011;2430;51.322;7.864;2022-10-16T14:13:52;1.53;;;0.90;;
4831;SDS011;2430;51.322;7.864;2022-10-16T14:16:19;1.37;;;0.90;;
4831;SDS011;2430;51.322;7.864;2022-10-16T14:18:52;0.97;;;0.87;;
4831;SDS011;2430;51.322;7.864;2022-10-16T14:21:21;2.03;;;0.90;;
4831;SDS011;2430;51.322;7.864;2022-10-16T14:23:47;1.77;;;0.83;;
4831;SDS011;2430;51.322;7.864;2022-10-16T14:26:15;1.67;;;1.17;;
4831;SDS011;2430;51.322;7.864;2022-10-16T14:28:42;2.23;;;0.80;;
4831;SDS011;2430;51.322;7.864;2022-10-16T14:33:55;6.00;;;1.13;;
4831;SDS011;2430;51.322;7.864;2022-10-16T14:36:21;1.20;;;0.70;;
4831;SDS011;2430;51.322;7.864;2022-10-16T14:38:49;0.90;;;0.80;;
4831;SDS011;2430;51.322;7.864;2022-10-16T14:41:19;2.40;;;1.13;;
4831;SDS011;2430;51.322;7.864;2022-10-16T14:43:49;1.37;;;0.70;;
4831;SDS011;2430;51.322;7.864;2022-10-16T14:46:20;0.80;;;0.73;;
4831;SDS011;2430;51.322;7.864;2022-10-16T14:48:47;0.83;;;0.77;;
4831;SDS011;2430;51.322;7.864;2022-10-16T14:51:17;1.00;;;0.80;;
4831;SDS011;2430;51.322;7.864;2022-10-16T14:53:43;1.20;;;0.80;;
4831;SDS011;2430;51.322;7.864;2022-10-16T14:56:14;0.70;;;0.60;;
4831;SDS011;2430;51.322;7.864;2022-10-16T14:58:42;0.80;;;0.70;;
4831;SDS011;2430;51.322;7.864;2022-10-16T15:01:09;1.27;;;0.90;;
4831;SDS011;2430;51.322;7.864;2022-10-16T15:03:36;1.23;;;0.80;;
4831;SDS011;2430;51.322;7.864;2022-10-16T15:06:03;0.73;;;0.60;;
4831;SDS011;2430;51.322;7.864;2022-10-16T15:08:31;0.80;;;0.60;;
4831;SDS011;2430;51.322;7.864;2022-10-16T15:10:57;1.27;;;0.80;;
4831;SDS011;2430;51.322;7.864;2022-10-16T15:13:24;0.80;;;0.63;;
4831;SDS011;2430;51.322;7.864;2022-10-16T15:15:51;1.30;;;1.20;;
4831;SDS011;2430;51.322;7.864;2022-10-16T15:18:21;0.80;;;0.80;;
4831;SDS011;2430;51.322;7.864;2022-10-16T15:20:50;1.30;;;1.10;;
4831;SDS011;2430;51.322;7.864;2022-10-16T15:23:21;1.27;;;1.03;;
4831;SDS011;2430;51.322;7.864;2022-10-16T15:25:50;1.20;;;1.10;;
4831;SDS011;2430;51.322;7.864;2022-10-16T15:28:17;1.67;;;0.80;;
4831;SDS011;2430;51.322;7.864;2022-10-16T15:30:44;1.00;;;0.90;;
4831;SDS011;2430;51.322;7.864;2022-10-16T15:33:13;1.53;;;0.70;;